Stafford, Virginia
Current Conditions -  °F | °C
As of 3:35 PM on Thursday 29 Jan 2015 (Local Time) from KRMN Reporting Station
Overcast Overcast  
Wind Chill: 39°   Ceiling: 7500
Heat Index: 39°   Visibility: 10mi
Dew Point:   Wind: 0mph
Humidity: 29%   Direction: NA
Pressure: 30.14"   Gusts: NA
Location:  38.42°N, 77.41°W
Report Text: KRMN 292035Z AUTO 00000KT 10SM SCT060 OVC075 04/M13 A3014 RMK AO2 T00381127
Loading
Personal Weather Stations






























Interactive Weather Map New forecast layout! Learn more

10-Day Weather Forecast

Advertisements
Track Severe Weather on mobile